Time;durP1;ratioP1;P1;durP2;ratioP2;P2;SDS_P1;SDS_P2;PMS_P1;PMS_P2;Temp;Humidity;BMP_temperature;BMP_pressure;BME280_temperature;BME280_humidity;BME280_pressure;Samples;Min_cycle;Max_cycle;Signal;HPM_P1;HPM_P2
2024/01/10 00:00:09;;;;;;;56.35;17.23;;;;;;;-11.01;100.00;99780.66;2552249;29;20422;-90
2024/01/10 00:01:26;;;;;;;46.42;16.50;;;;;;;-11.00;100.00;99787.47;2566279;28;20060;-90
2024/01/10 00:02:43;;;;;;;51.53;16.98;;;;;;;-11.15;100.00;99778.69;2558601;29;20043;-91
2024/01/10 00:03:58;;;;;;;52.30;16.70;;;;;;;-11.23;100.00;99778.06;2566456;28;20149;-90
2024/01/10 00:05:14;;;;;;;42.08;14.05;;;;;;;-11.22;100.00;99782.34;2567976;28;20537;-90
2024/01/10 00:06:31;;;;;;;47.00;15.77;;;;;;;-11.14;100.00;99775.38;2555048;29;20047;-90
2024/01/10 00:07:47;;;;;;;58.97;18.98;;;;;;;-11.23;100.00;99771.34;2556422;28;21007;-89
2024/01/10 00:09:03;;;;;;;47.90;16.17;;;;;;;-11.10;100.00;99773.22;2570118;28;20434;-90
2024/01/10 00:10:21;;;;;;;48.28;17.08;;;;;;;-11.12;100.00;99772.19;2557737;29;20150;-89
2024/01/10 00:11:37;;;;;;;47.92;17.60;;;;;;;-10.83;100.00;99770.22;2556838;28;20607;-90
2024/01/10 00:12:53;;;;;;;39.13;14.45;;;;;;;-11.02;100.00;99762.81;2552350;29;20130;-90
2024/01/10 00:14:10;;;;;;;45.35;17.02;;;;;;;-11.03;100.00;99761.94;2556170;28;20182;-91
2024/01/10 00:15:26;;;;;;;49.55;16.52;;;;;;;-11.01;100.00;99764.59;2561714;28;20050;-90
2024/01/10 00:16:42;;;;;;;52.25;16.83;;;;;;;-11.25;100.00;99766.91;2549884;29;20506;-91
2024/01/10 00:17:58;;;;;;;49.95;17.15;;;;;;;-11.22;100.00;99762.13;2546248;29;20074;-90
2024/01/10 00:19:14;;;;;;;48.75;17.27;;;;;;;-11.15;100.00;99763.50;2560055;28;20038;-90
2024/01/10 00:20:30;;;;;;;53.53;17.25;;;;;;;-11.34;100.00;99759.50;2576186;28;20038;-90
2024/01/10 00:21:46;;;;;;;49.80;18.15;;;;;;;-11.17;100.00;99754.88;2555127;29;20043;-90
2024/01/10 00:23:02;;;;;;;54.28;18.33;;;;;;;-11.37;100.00;99761.78;2562705;28;20031;-90
2024/01/10 00:24:19;;;;;;;47.20;15.70;;;;;;;-11.43;100.00;99763.81;2575775;28;20027;-90
2024/01/10 00:25:35;;;;;;;49.38;17.70;;;;;;;-11.23;100.00;99760.38;2567515;28;20089;-89
2024/01/10 00:26:51;;;;;;;50.25;17.90;;;;;;;-11.32;100.00;99763.00;2558470;28;20077;-89
2024/01/10 00:28:07;;;;;;;37.25;14.63;;;;;;;-11.30;100.00;99759.00;2561835;28;20097;-90
2024/01/10 00:29:23;;;;;;;53.72;17.75;;;;;;;-11.07;100.00;99757.38;2558543;29;20517;-90
2024/01/10 00:30:39;;;;;;;45.33;16.13;;;;;;;-11.09;100.00;99758.91;2562091;28;20046;-90
2024/01/10 00:31:59;;;;;;;42.20;16.75;;;;;;;-11.10;100.00;99759.69;2559317;28;20045;-90
2024/01/10 00:33:15;;;;;;;54.08;18.20;;;;;;;-11.11;100.00;99760.44;2561991;28;20047;-90
2024/01/10 00:34:31;;;;;;;45.58;15.88;;;;;;;-11.19;100.00;99757.31;2551857;28;20439;-90
2024/01/10 00:35:47;;;;;;;46.17;18.13;;;;;;;-11.04;100.00;99761.81;2551423;29;20070;-90
2024/01/10 00:37:03;;;;;;;46.25;18.30;;;;;;;-11.04;100.00;99767.75;2561671;28;20617;-90
2024/01/10 00:38:19;;;;;;;49.50;18.65;;;;;;;-11.01;100.00;99757.91;2561692;28;20134;-90
2024/01/10 00:39:35;;;;;;;50.30;17.77;;;;;;;-10.97;100.00;99759.88;2568370;28;20129;-90
2024/01/10 00:40:51;;;;;;;47.60;16.08;;;;;;;-10.97;100.00;99756.47;2561641;28;20470;-90
2024/01/10 00:42:07;;;;;;;58.17;18.23;;;;;;;-11.19;100.00;99752.25;2551712;29;20050;-92
2024/01/10 00:43:23;;;;;;;41.42;15.18;;;;;;;-11.43;100.00;99761.31;2546001;29;20043;-89
2024/01/10 00:44:39;;;;;;;46.28;17.30;;;;;;;-11.35;100.00;99757.72;2546155;29;20046;-90
2024/01/10 00:45:55;;;;;;;46.40;16.40;;;;;;;-11.30;100.00;99753.94;2563314;28;20688;-91
2024/01/10 00:47:11;;;;;;;51.58;17.25;;;;;;;-11.53;100.00;99759.66;2557871;29;20039;-90
2024/01/10 00:48:27;;;;;;;50.90;16.02;;;;;;;-11.41;100.00;99755.59;2565912;28;20049;-90
2024/01/10 00:49:43;;;;;;;49.15;16.73;;;;;;;-11.45;100.00;99765.31;2557560;29;20487;-89
2024/01/10 00:50:59;;;;;;;44.70;16.70;;;;;;;-11.33;100.00;99761.25;2553353;28;20043;-90
2024/01/10 00:52:15;;;;;;;49.92;15.48;;;;;;;-11.37;100.00;99760.16;2545916;29;20071;-91
2024/01/10 00:53:31;;;;;;;48.60;16.88;;;;;;;-11.35;100.00;99766.22;2555642;28;20046;-90
2024/01/10 00:54:47;;;;;;;47.50;17.05;;;;;;;-11.30;100.00;99766.59;2561887;28;20063;-91
2024/01/10 00:56:04;;;;;;;56.25;17.13;;;;;;;-11.32;100.00;99764.69;2564431;28;20074;-90
2024/01/10 00:57:20;;;;;;;49.78;16.77;;;;;;;-11.42;100.00;99770.66;2554642;29;20043;-91
2024/01/10 00:58:36;;;;;;;48.00;16.95;;;;;;;-11.52;100.00;99764.84;2555889;28;20529;-90
2024/01/10 00:59:52;;;;;;;42.10;14.90;;;;;;;-11.46;100.00;99768.59;2557417;29;20558;-90
2024/01/10 01:01:08;;;;;;;52.33;17.63;;;;;;;-11.53;100.00;99773.19;2546181;29;20047;-90
2024/01/10 01:02:24;;;;;;;49.05;17.95;;;;;;;-11.50;100.00;99765.84;2555995;28;20434;-89
2024/01/10 01:03:40;;;;;;;48.63;17.10;;;;;;;-11.52;100.00;99767.38;2567600;28;20597;-90
2024/01/10 01:04:56;;;;;;;46.17;16.17;;;;;;;-11.60;100.00;99768.38;2551552;29;20427;-91
2024/01/10 01:06:12;;;;;;;41.90;14.45;;;;;;;-11.68;100.00;99766.88;2565207;28;20387;-89
2024/01/10 01:07:28;;;;;;;48.50;15.80;;;;;;;-11.81;100.00;99768.41;2557805;29;20047;-90
2024/01/10 01:08:44;;;;;;;48.20;15.85;;;;;;;-11.84;100.00;99772.31;2552442;28;20578;-90
2024/01/10 01:10:00;;;;;;;45.90;15.00;;;;;;;-11.71;100.00;99767.50;2556892;28;20077;-90
2024/01/10 01:11:16;;;;;;;47.75;15.13;;;;;;;-11.64;100.00;99771.41;2564343;28;20461;-90
2024/01/10 01:12:33;;;;;;;44.30;16.48;;;;;;;-11.53;100.00;99775.72;2551651;29;20102;-90
2024/01/10 01:13:49;;;;;;;48.28;17.02;;;;;;;-11.41;100.00;99773.28;2557954;28;20130;-90
2024/01/10 01:15:05;;;;;;;44.35;15.77;;;;;;;-11.44;100.00;99783.16;2561485;28;20046;-90
2024/01/10 01:16:21;;;;;;;45.05;17.13;;;;;;;-11.44;100.00;99777.22;2565516;28;20043;-90
2024/01/10 01:17:38;;;;;;;46.05;17.83;;;;;;;-11.44;100.00;99773.03;2567907;28;20132;-93
2024/01/10 01:18:54;;;;;;;52.13;17.10;;;;;;;-11.31;100.00;99772.41;2552116;29;20183;-90
2024/01/10 01:20:10;;;;;;;45.85;15.57;;;;;;;-11.29;100.00;99775.03;2555947;28;20445;-90
2024/01/10 01:21:26;;;;;;;44.08;15.52;;;;;;;-11.28;100.00;99774.25;2557579;29;20066;-91
2024/01/10 01:22:42;;;;;;;43.35;16.00;;;;;;;-11.56;100.00;99772.94;2555519;28;20074;-90
2024/01/10 01:23:58;;;;;;;42.33;15.77;;;;;;;-11.43;100.00;99771.41;2561767;28;20533;-90
2024/01/10 01:25:14;;;;;;;47.10;16.40;;;;;;;-11.41;100.00;99765.69;2561575;28;20475;-91
2024/01/10 01:26:30;;;;;;;48.70;16.63;;;;;;;-11.36;100.00;99766.97;2551940;29;20046;-90
2024/01/10 01:27:46;;;;;;;45.72;15.90;;;;;;;-11.33;100.00;99771.38;2546658;29;20538;-91
2024/01/10 01:29:02;;;;;;;50.72;18.08;;;;;;;-11.50;100.00;99764.97;2555996;28;20606;-91
2024/01/10 01:30:19;;;;;;;44.30;15.40;;;;;;;-11.52;100.00;99769.88;2552245;29;20050;-91
2024/01/10 01:31:35;;;;;;;51.45;18.05;;;;;;;-11.37;100.00;99765.19;2546598;29;20106;-91
2024/01/10 01:32:52;;;;;;;43.83;15.68;;;;;;;-11.23;100.00;99768.81;2546021;29;20504;-91
2024/01/10 01:34:08;;;;;;;46.55;17.17;;;;;;;-11.47;100.00;99765.22;2552902;29;20137;-91
2024/01/10 01:35:24;;;;;;;44.65;16.15;;;;;;;-11.52;100.00;99764.84;2566562;28;20050;-91
2024/01/10 01:36:40;;;;;;;51.90;18.73;;;;;;;-11.36;100.00;99763.53;2567377;28;20435;-91
2024/01/10 01:37:56;;;;;;;40.08;14.95;;;;;;;-11.29;100.00;99757.34;2549900;29;20130;-91
2024/01/10 01:39:13;;;;;;;51.95;17.30;;;;;;;-11.51;100.00;99763.22;2546153;29;20431;-91
2024/01/10 01:40:29;;;;;;;50.40;17.50;;;;;;;-11.46;100.00;99764.44;2546649;29;20507;-93
2024/01/10 01:41:45;;;;;;;55.47;17.83;;;;;;;-11.44;100.00;99764.59;2555832;28;20047;-91
2024/01/10 01:43:02;;;;;;;51.40;15.77;;;;;;;-11.40;100.00;99761.53;2557478;29;20045;-90
2024/01/10 01:44:18;;;;;;;48.25;15.55;;;;;;;-11.43;100.00;99758.78;2546087;29;20047;-90
2024/01/10 01:45:34;;;;;;;41.35;15.93;;;;;;;-11.35;100.00;99758.63;2553649;28;20876;-92
2024/01/10 01:46:50;;;;;;;45.90;16.40;;;;;;;-11.39;100.00;99756.59;2548344;29;20043;-91
2024/01/10 01:48:06;;;;;;;48.67;16.80;;;;;;;-11.29;100.00;99757.34;2558117;28;20062;-89
2024/01/10 01:49:24;;;;;;;44.65;14.93;;;;;;;-11.40;100.00;99759.88;2574066;28;20042;-89
2024/01/10 01:50:41;;;;;;;47.50;16.15;;;;;;;-11.40;100.00;99761.53;2569989;28;20039;-89
2024/01/10 01:51:57;;;;;;;51.13;15.68;;;;;;;-11.52;100.00;99761.44;2554080;29;20138;-89
2024/01/10 01:53:14;;;;;;;44.97;16.27;;;;;;;-11.57;100.00;99761.06;2554026;29;20047;-90
2024/01/10 01:54:32;;;;;;;50.55;15.77;;;;;;;-11.36;100.00;99761.00;2557912;28;20042;-89
2024/01/10 01:55:49;;;;;;;42.42;14.95;;;;;;;-11.32;100.00;99754.56;2554245;29;20043;-90
2024/01/10 01:57:05;;;;;;;42.78;14.68;;;;;;;-11.30;100.00;99750.50;2557793;28;20038;-89
2024/01/10 01:58:23;;;;;;;49.33;15.98;;;;;;;-11.23;100.00;99750.25;2553409;29;20122;-89
2024/01/10 01:59:39;;;;;;;45.97;16.02;;;;;;;-11.17;100.00;99754.88;2557472;28;20149;-92
2024/01/10 02:00:56;;;;;;;49.75;15.93;;;;;;;-11.21;100.00;99754.66;2556105;29;20106;-89
2024/01/10 02:02:14;;;;;;;54.35;17.98;;;;;;;-11.13;100.00;99756.91;2553664;29;20083;-89
2024/01/10 02:03:33;;;;;;;46.33;16.83;;;;;;;-11.12;100.00;99757.03;2558221;28;20459;-91
2024/01/10 02:04:49;;;;;;;50.35;17.00;;;;;;;-11.24;100.00;99751.88;2563171;28;20046;-90
2024/01/10 02:06:06;;;;;;;55.90;18.30;;;;;;;-11.59;100.00;99757.53;2553357;29;20070;-89
2024/01/10 02:07:22;;;;;;;51.10;19.45;;;;;;;-11.36;100.00;99758.47;2555139;28;20078;-89
2024/01/10 02:08:39;;;;;;;50.08;18.35;;;;;;;-11.22;100.00;99755.41;2563349;28;20151;-89
2024/01/10 02:09:54;;;;;;;57.70;18.70;;;;;;;-11.22;100.00;99749.50;2553962;29;20130;-89
2024/01/10 02:11:10;;;;;;;47.58;17.80;;;;;;;-11.27;100.00;99750.75;2557423;28;20097;-89
2024/01/10 02:12:27;;;;;;;54.35;17.40;;;;;;;-11.41;100.00;99748.00;2559630;29;20054;-88
2024/01/10 02:13:43;;;;;;;50.17;16.02;;;;;;;-11.55;100.00;99744.38;2547489;29;20074;-89
2024/01/10 02:14:59;;;;;;;54.00;17.17;;;;;;;-11.43;100.00;99749.53;2547434;29;20050;-89
2024/01/10 02:16:15;;;;;;;48.38;17.52;;;;;;;-11.39;100.00;99748.13;2548117;29;20184;-89
2024/01/10 02:17:31;;;;;;;48.03;16.38;;;;;;;-11.44;100.00;99746.91;2548058;29;20122;-90
2024/01/10 02:18:47;;;;;;;46.47;16.63;;;;;;;-11.29;100.00;99743.06;2557611;28;20565;-89
2024/01/10 02:20:18;;;;;;;47.13;17.05;;;;;;;-11.27;100.00;99746.59;2553425;29;20096;-90
2024/01/10 02:21:34;;;;;;;43.95;16.80;;;;;;;-11.22;100.00;99744.44;2558836;28;20039;-90
2024/01/10 02:22:50;;;;;;;41.97;16.60;;;;;;;-11.14;100.00;99745.91;2550744;29;20074;-89
2024/01/10 02:24:06;;;;;;;51.85;18.08;;;;;;;-11.37;100.00;99746.59;2547703;29;20042;-90
2024/01/10 02:25:22;;;;;;;42.05;15.15;;;;;;;-11.33;100.00;99753.66;2567254;28;20038;-91
2024/01/10 02:26:39;;;;;;;55.30;17.17;;;;;;;-11.35;100.00;99751.03;2568776;28;20046;-88
2024/01/10 02:27:55;;;;;;;42.20;15.60;;;;;;;-11.47;100.00;99751.69;2569287;28;20045;-89
2024/01/10 02:29:12;;;;;;;45.15;15.88;;;;;;;-11.53;100.00;99752.97;2573270;28;20532;-89
2024/01/10 02:30:27;;;;;;;54.20;17.00;;;;;;;-11.38;100.00;99747.38;2568812;28;20358;-89
2024/01/10 02:31:44;;;;;;;47.63;16.98;;;;;;;-11.34;100.00;99749.38;2565310;28;20049;-89
2024/01/10 02:33:00;;;;;;;51.28;17.77;;;;;;;-11.31;100.00;99747.13;2559782;28;20050;-89
2024/01/10 02:34:16;;;;;;;42.78;15.38;;;;;;;-11.23;100.00;99742.66;2556944;28;20078;-89
2024/01/10 02:35:33;;;;;;;47.15;16.45;;;;;;;-11.27;100.00;99740.63;2563012;28;20589;-89
2024/01/10 02:36:49;;;;;;;50.58;16.63;;;;;;;-11.20;100.00;99745.44;2573515;28;20529;-89
2024/01/10 02:38:05;;;;;;;48.70;16.90;;;;;;;-11.29;100.00;99739.63;2559255;29;20126;-89
2024/01/10 02:39:21;;;;;;;49.60;16.75;;;;;;;-11.34;100.00;99739.25;2567536;28;20049;-90
2024/01/10 02:40:37;;;;;;;43.17;16.88;;;;;;;-11.41;100.00;99737.88;2565028;28;20051;-89
2024/01/10 02:41:53;;;;;;;44.45;16.50;;;;;;;-11.42;100.00;99735.25;2562888;28;20143;-89
2024/01/10 02:43:09;;;;;;;46.83;15.48;;;;;;;-11.34;100.00;99739.25;2572717;28;20053;-89
2024/01/10 02:44:25;;;;;;;48.88;17.30;;;;;;;-11.38;100.00;99740.69;2564322;28;20076;-90
2024/01/10 02:45:42;;;;;;;44.95;15.45;;;;;;;-11.29;100.00;99740.53;2562662;28;20133;-89
2024/01/10 02:46:59;;;;;;;47.47;16.23;;;;;;;-11.30;100.00;99736.25;2553528;29;20043;-88
2024/01/10 02:48:15;;;;;;;45.33;15.85;;;;;;;-11.26;100.00;99733.19;2557201;28;20134;-90
2024/01/10 02:49:31;;;;;;;40.03;15.98;;;;;;;-11.45;100.00;99728.31;2552866;29;20134;-89
2024/01/10 02:50:47;;;;;;;49.20;16.00;;;;;;;-11.71;100.00;99728.75;2563024;28;20041;-89
2024/01/10 02:52:03;;;;;;;46.30;17.25;;;;;;;-11.68;100.00;99736.56;2563054;28;20058;-89
2024/01/10 02:53:19;;;;;;;51.08;17.73;;;;;;;-11.67;100.00;99735.81;2558807;29;20518;-89
2024/01/10 02:54:35;;;;;;;48.47;15.88;;;;;;;-11.84;100.00;99730.28;2553032;29;20054;-89
2024/01/10 02:55:52;;;;;;;49.22;17.10;;;;;;;-11.55;100.00;99731.75;2553421;29;20074;-89
2024/01/10 02:57:08;;;;;;;54.25;15.50;;;;;;;-11.59;100.00;99729.75;2557227;28;20521;-89
2024/01/10 02:58:25;;;;;;;49.92;16.77;;;;;;;-11.49;100.00;99726.31;2558606;28;20141;-89
2024/01/10 02:59:41;;;;;;;49.80;16.65;;;;;;;-11.36;100.00;99725.63;2557174;28;20039;-89
2024/01/10 03:00:58;;;;;;;40.95;14.93;;;;;;;-11.43;100.00;99723.38;2553008;29;20615;-89
2024/01/10 03:02:14;;;;;;;43.08;14.60;;;;;;;-11.45;100.00;99724.88;2547210;29;20043;-89
2024/01/10 03:03:30;;;;;;;50.03;16.00;;;;;;;-11.26;100.00;99722.19;2556874;28;20043;-90
2024/01/10 03:04:47;;;;;;;48.45;17.92;;;;;;;-11.42;100.00;99723.50;2572190;28;20507;-89
2024/01/10 03:06:04;;;;;;;44.88;16.92;;;;;;;-11.33;100.00;99722.47;2568465;28;20179;-89
2024/01/10 03:07:20;;;;;;;43.67;15.93;;;;;;;-11.20;100.00;99720.16;2558433;28;20094;-89
2024/01/10 03:08:36;;;;;;;43.05;15.38;;;;;;;-11.46;100.00;99718.06;2550237;29;20047;-89
2024/01/10 03:09:52;;;;;;;39.80;14.75;;;;;;;-11.28;100.00;99708.53;2552598;29;20038;-90
2024/01/10 03:11:08;;;;;;;41.55;16.48;;;;;;;-11.21;100.00;99709.13;2556929;28;20137;-89
2024/01/10 03:12:24;;;;;;;46.28;16.95;;;;;;;-11.45;100.00;99704.66;2559608;28;20043;-89
2024/01/10 03:13:40;;;;;;;54.55;17.17;;;;;;;-11.28;100.00;99704.38;2560432;28;20039;-89
2024/01/10 03:14:56;;;;;;;50.00;16.77;;;;;;;-11.25;100.00;99713.81;2553067;29;20456;-90
2024/01/10 03:16:12;;;;;;;50.58;15.82;;;;;;;-11.28;100.00;99703.47;2547267;29;20042;-90
2024/01/10 03:17:28;;;;;;;55.95;18.48;;;;;;;-11.28;100.00;99704.38;2556706;28;20570;-89
2024/01/10 03:18:46;;;;;;;53.08;16.65;;;;;;;-11.28;100.00;99704.38;2552439;29;20051;-89
2024/01/10 03:20:03;;;;;;;49.03;16.58;;;;;;;-11.60;100.00;99704.34;2563507;28;20039;-88
2024/01/10 03:21:24;;;;;;;36.40;15.70;;;;;;;-11.64;100.00;99700.66;2563021;28;20129;-89
2024/01/10 03:22:40;;;;;;;45.60;15.48;;;;;;;-11.51;100.00;99693.31;2563639;28;20039;-89
2024/01/10 03:23:57;;;;;;;50.85;16.60;;;;;;;-11.31;100.00;99703.25;2553369;29;20039;-89
2024/01/10 03:25:13;;;;;;;45.55;13.98;;;;;;;-11.55;100.00;99698.88;2557045;28;20050;-89
2024/01/10 03:26:30;;;;;;;40.95;15.13;;;;;;;-11.50;100.00;99697.59;2562481;28;20050;-89
2024/01/10 03:27:46;;;;;;;41.67;15.00;;;;;;;-11.41;100.00;99696.59;2562741;28;20038;-89
2024/01/10 03:29:02;;;;;;;38.70;13.73;;;;;;;-11.39;100.00;99695.91;2553032;29;20085;-89
2024/01/10 03:30:19;;;;;;;40.22;14.63;;;;;;;-11.34;100.00;99693.75;2546935;29;20130;-89
2024/01/10 03:31:35;;;;;;;43.47;14.93;;;;;;;-11.26;100.00;99699.41;2547484;29;20039;-90
2024/01/10 03:32:51;;;;;;;43.08;14.45;;;;;;;-11.18;100.00;99697.50;2546905;29;20047;-88
2024/01/10 03:34:07;;;;;;;45.90;16.45;;;;;;;-11.19;100.00;99698.25;2560126;28;20046;-89
2024/01/10 03:35:23;;;;;;;48.00;16.50;;;;;;;-11.14;100.00;99690.28;2549727;29;20043;-89
2024/01/10 03:36:39;;;;;;;49.63;16.23;;;;;;;-11.22;100.00;99694.72;2546651;29;20039;-89
2024/01/10 03:37:55;;;;;;;48.15;17.00;;;;;;;-11.19;100.00;99688.16;2566873;28;20132;-89
2024/01/10 03:39:11;;;;;;;49.17;16.90;;;;;;;-11.21;100.00;99696.50;2559183;28;20047;-88
2024/01/10 03:40:27;;;;;;;47.13;16.52;;;;;;;-11.16;100.00;99688.41;2551360;28;20047;-90
2024/01/10 03:41:43;;;;;;;45.60;14.88;;;;;;;-11.31;100.00;99696.56;2550013;29;20051;-89
2024/01/10 03:42:59;;;;;;;40.33;16.17;;;;;;;-11.22;100.00;99692.19;2556599;28;20039;-89
2024/01/10 03:44:15;;;;;;;44.95;15.57;;;;;;;-11.51;100.00;99698.38;2568150;28;20053;-89
2024/01/10 03:45:31;;;;;;;46.60;16.33;;;;;;;-11.30;100.00;99695.78;2562807;28;20053;-89
2024/01/10 03:46:47;;;;;;;48.92;17.65;;;;;;;-11.27;100.00;99698.56;2552819;28;20458;-89
2024/01/10 03:48:04;;;;;;;60.70;18.23;;;;;;;-11.13;100.00;99689.50;2556835;28;20070;-90
2024/01/10 03:49:20;;;;;;;44.00;17.13;;;;;;;-11.10;100.00;99693.94;2572613;28;20080;-90
2024/01/10 03:50:36;;;;;;;49.42;18.20;;;;;;;-11.10;100.00;99699.00;2569023;28;20031;-89
2024/01/10 03:51:52;;;;;;;52.17;18.52;;;;;;;-11.11;100.00;99692.16;2562741;28;20075;-89
2024/01/10 03:53:08;;;;;;;51.25;18.35;;;;;;;-11.31;100.00;99696.56;2552833;29;20043;-89
2024/01/10 03:54:24;;;;;;;52.17;18.42;;;;;;;-11.30;100.00;99695.78;2556077;28;20046;-89
2024/01/10 03:55:40;;;;;;;52.70;18.35;;;;;;;-11.29;100.00;99701.72;2552213;29;20149;-89
2024/01/10 03:56:56;;;;;;;53.13;17.80;;;;;;;-11.31;100.00;99703.25;2552944;29;20039;-89
2024/01/10 03:58:12;;;;;;;46.58;16.70;;;;;;;-11.31;100.00;99704.13;2547074;29;20043;-89
2024/01/10 03:59:28;;;;;;;45.95;16.67;;;;;;;-11.36;100.00;99700.34;2553570;28;20446;-91
2024/01/10 04:00:44;;;;;;;44.40;17.92;;;;;;;-11.25;100.00;99704.59;2558176;28;20065;-89
2024/01/10 04:02:01;;;;;;;47.08;17.17;;;;;;;-11.42;100.00;99699.88;2550699;29;20102;-88
2024/01/10 04:03:17;;;;;;;45.65;17.92;;;;;;;-11.45;100.00;99702.13;2556944;28;20027;-89
2024/01/10 04:04:37;;;;;;;51.97;16.95;;;;;;;-11.35;100.00;99697.06;2562193;28;20527;-89
2024/01/10 04:05:53;;;;;;;49.97;17.95;;;;;;;-11.56;100.00;99697.13;2568060;28;20418;-89
2024/01/10 04:07:09;;;;;;;49.08;17.38;;;;;;;-11.39;100.00;99697.59;2558673;28;20035;-89
2024/01/10 04:08:25;;;;;;;55.53;17.45;;;;;;;-11.34;100.00;99693.75;2556428;28;20043;-91
2024/01/10 04:09:42;;;;;;;55.00;17.70;;;;;;;-11.39;100.00;99693.38;2567507;28;20039;-88
2024/01/10 04:10:59;;;;;;;50.50;16.00;;;;;;;-11.29;100.00;99697.56;2553059;29;20540;-91
2024/01/10 04:12:15;;;;;;;50.92;16.75;;;;;;;-11.19;100.00;99704.22;2563149;28;20175;-91
2024/01/10 04:13:31;;;;;;;54.08;18.13;;;;;;;-11.14;100.00;99691.94;2558781;29;20122;-89
2024/01/10 04:14:47;;;;;;;50.35;17.80;;;;;;;-11.21;100.00;99698.16;2556631;28;20043;-91
2024/01/10 04:16:04;;;;;;;57.42;17.27;;;;;;;-11.13;100.00;99706.34;2568631;28;20062;-89
2024/01/10 04:17:20;;;;;;;57.90;17.77;;;;;;;-11.21;100.00;99696.50;2572137;28;20140;-89
2024/01/10 04:18:36;;;;;;;45.17;17.33;;;;;;;-11.36;100.00;99705.41;2558165;29;20054;-88
2024/01/10 04:19:52;;;;;;;49.78;17.25;;;;;;;-11.29;100.00;99696.66;2546564;29;20047;-89
2024/01/10 04:21:08;;;;;;;47.33;16.40;;;;;;;-11.33;100.00;99698.06;2546233;29;20043;-90
2024/01/10 04:22:25;;;;;;;49.50;17.58;;;;;;;-11.29;100.00;99692.50;2552013;29;20142;-89
2024/01/10 04:23:40;;;;;;;59.05;19.00;;;;;;;-11.36;100.00;99691.13;2562814;28;20628;-88
2024/01/10 04:24:58;;;;;;;50.95;17.98;;;;;;;-11.40;100.00;99694.16;2556146;28;20498;-88
2024/01/10 04:26:14;;;;;;;48.25;17.75;;;;;;;-11.36;100.00;99691.13;2562589;28;20130;-90
2024/01/10 04:27:30;;;;;;;51.47;17.92;;;;;;;-11.28;100.00;99695.91;2552096;29;20067;-89
2024/01/10 04:28:46;;;;;;;40.33;15.93;;;;;;;-11.25;100.00;99701.19;2556718;28;20050;-89
2024/01/10 04:30:02;;;;;;;47.83;16.90;;;;;;;-11.25;100.00;99691.97;2562095;28;20113;-90
2024/01/10 04:31:18;;;;;;;50.47;17.25;;;;;;;-11.37;100.00;99698.59;2562344;28;20097;-88
2024/01/10 04:32:35;;;;;;;47.85;18.08;;;;;;;-11.37;100.00;99696.06;2552662;29;20046;-89
2024/01/10 04:33:51;;;;;;;50.90;16.77;;;;;;;-11.33;100.00;99694.66;2561952;28;20046;-90
2024/01/10 04:35:07;;;;;;;51.05;17.58;;;;;;;-11.35;100.00;99697.94;2559959;28;20124;-88
2024/01/10 04:36:23;;;;;;;51.83;18.77;;;;;;;-11.26;100.00;99699.41;2562015;28;20055;-87
2024/01/10 04:37:39;;;;;;;51.20;18.23;;;;;;;-11.25;100.00;99691.06;2552661;29;20566;-88
2024/01/10 04:38:55;;;;;;;44.72;17.00;;;;;;;-11.20;100.00;99687.28;2562688;28;20459;-88
2024/01/10 04:40:11;;;;;;;55.92;19.38;;;;;;;-11.31;100.00;99696.56;2555874;28;20042;-90
2024/01/10 04:41:27;;;;;;;47.05;17.08;;;;;;;-11.27;100.00;99696.03;2548832;29;20055;-89
2024/01/10 04:42:44;;;;;;;54.13;17.60;;;;;;;-11.32;100.00;99688.84;2552530;28;20046;-91
2024/01/10 04:44:00;;;;;;;54.63;15.95;;;;;;;-11.30;100.00;99688.22;2552342;28;20121;-90
2024/01/10 04:45:16;;;;;;;56.88;18.95;;;;;;;-11.37;100.00;99689.38;2561997;28;20069;-90
2024/01/10 04:46:33;;;;;;;48.22;18.40;;;;;;;-11.30;100.00;99687.31;2552241;29;20047;-90
2024/01/10 04:47:49;;;;;;;50.15;16.80;;;;;;;-11.41;100.00;99686.47;2561407;28;20051;-91
2024/01/10 04:49:05;;;;;;;50.05;17.35;;;;;;;-11.43;100.00;99682.94;2555378;29;20099;-91
2024/01/10 04:50:21;;;;;;;54.85;18.95;;;;;;;-11.38;100.00;99685.06;2556031;28;20046;-91
2024/01/10 04:51:37;;;;;;;51.15;17.48;;;;;;;-11.38;100.00;99684.19;2558423;29;20166;-90
2024/01/10 04:52:53;;;;;;;47.35;17.10;;;;;;;-11.29;100.00;99691.59;2546419;29;20161;-90
2024/01/10 04:54:09;;;;;;;49.47;16.83;;;;;;;-11.42;100.00;99690.63;2546901;28;20147;-90
2024/01/10 04:55:25;;;;;;;51.88;18.15;;;;;;;-11.46;100.00;99688.63;2552656;28;20042;-89
2024/01/10 04:56:42;;;;;;;55.63;18.27;;;;;;;-11.43;100.00;99686.34;2551839;29;20154;-90
2024/01/10 04:57:58;;;;;;;51.28;17.85;;;;;;;-11.37;100.00;99683.41;2546606;28;20166;-90
2024/01/10 04:59:14;;;;;;;52.00;16.38;;;;;;;-11.50;100.00;99682.44;2556066;28;20692;-89
2024/01/10 05:00:30;;;;;;;46.03;15.40;;;;;;;-11.47;100.00;99679.28;2549543;29;20039;-89
2024/01/10 05:01:46;;;;;;;49.28;17.38;;;;;;;-11.41;100.00;99681.41;2546796;29;20438;-89
2024/01/10 05:03:02;;;;;;;44.38;16.02;;;;;;;-11.41;100.00;99676.38;2552433;29;20082;-89
2024/01/10 05:04:18;;;;;;;55.78;17.52;;;;;;;-11.44;100.00;99677.00;2551338;28;20499;-92
2024/01/10 05:05:34;;;;;;;51.28;17.73;;;;;;;-11.32;100.00;99681.25;2548389;29;20050;-88
2024/01/10 05:06:50;;;;;;;49.53;16.45;;;;;;;-11.45;100.00;99685.34;2546304;29;20529;-89
2024/01/10 05:08:06;;;;;;;44.13;14.55;;;;;;;-11.51;100.00;99682.34;2552784;28;20134;-90
2024/01/10 05:09:22;;;;;;;45.58;15.05;;;;;;;-11.43;100.00;99685.47;2546945;29;20047;-88
2024/01/10 05:10:38;;;;;;;51.30;17.15;;;;;;;-11.31;100.00;99690.59;2545751;29;20050;-89
2024/01/10 05:11:54;;;;;;;41.78;14.85;;;;;;;-11.34;100.00;99686.19;2566034;28;20108;-89
2024/01/10 05:13:10;;;;;;;54.10;15.93;;;;;;;-11.42;100.00;99684.72;2558040;29;20138;-89
2024/01/10 05:14:26;;;;;;;38.13;16.08;;;;;;;-11.50;100.00;99686.63;2546137;29;20043;-90
2024/01/10 05:15:42;;;;;;;46.72;15.60;;;;;;;-11.35;100.00;99686.94;2551986;29;20051;-89
2024/01/10 05:16:58;;;;;;;42.45;16.02;;;;;;;-11.45;100.00;99690.38;2546260;29;20066;-88
2024/01/10 05:18:16;;;;;;;46.38;18.10;;;;;;;-11.33;100.00;99695.53;2551867;28;20046;-91
2024/01/10 05:19:32;;;;;;;45.35;16.67;;;;;;;-11.33;100.00;99689.59;2556617;28;20482;-88
2024/01/10 05:20:48;;;;;;;41.58;16.00;;;;;;;-11.32;100.00;99694.75;2562048;28;20219;-90
2024/01/10 05:22:04;;;;;;;46.65;17.27;;;;;;;-11.43;100.00;99700.63;2554036;29;20054;-89
2024/01/10 05:23:20;;;;;;;41.35;15.90;;;;;;;-11.44;100.00;99693.81;2557963;28;20066;-88
2024/01/10 05:24:36;;;;;;;49.30;16.13;;;;;;;-11.65;100.00;99707.38;2554376;29;20105;-89
2024/01/10 05:25:53;;;;;;;46.17;16.15;;;;;;;-11.41;100.00;99691.53;2553751;29;20047;-90
2024/01/10 05:27:09;;;;;;;40.35;14.43;;;;;;;-11.39;100.00;99695.06;2556656;28;20046;-89
2024/01/10 05:28:25;;;;;;;48.85;15.68;;;;;;;-11.38;100.00;99695.19;2551149;29;20460;-88
2024/01/10 05:29:41;;;;;;;58.63;17.33;;;;;;;-11.60;100.00;99700.16;2554349;29;20055;-90
2024/01/10 05:30:58;;;;;;;42.45;16.70;;;;;;;-11.31;100.00;99694.03;2547726;29;20040;-91
2024/01/10 05:32:14;;;;;;;53.10;18.63;;;;;;;-11.26;100.00;99696.88;2563818;28;20056;-91
2024/01/10 05:33:30;;;;;;;60.05;19.27;;;;;;;-11.25;100.00;99694.50;2553976;29;20478;-90
2024/01/10 05:34:47;;;;;;;65.78;20.90;;;;;;;-11.17;100.00;99691.66;2551219;28;20043;-90
2024/01/10 05:36:04;;;;;;;56.35;19.90;;;;;;;-11.45;100.00;99694.53;2560065;28;20054;-88
2024/01/10 05:37:21;;;;;;;44.65;18.77;;;;;;;-11.31;100.00;99688.97;2556661;29;20078;-88
2024/01/10 05:38:38;;;;;;;55.97;20.55;;;;;;;-11.25;100.00;99693.59;2555978;28;20529;-89
2024/01/10 05:39:54;;;;;;;65.05;19.20;;;;;;;-11.51;100.00;99690.78;2551496;28;20126;-89
2024/01/10 05:41:10;;;;;;;51.20;18.23;;;;;;;-11.18;100.00;99687.38;2554225;28;20459;-89
2024/01/10 05:42:26;;;;;;;65.57;20.55;;;;;;;-11.18;100.00;99690.81;2557935;28;20035;-88